Terminal Aerodrome Forecast
Issued by NWS Grand Forks, ND

Home | Current Version | Previous Version | Text Only | Print | Product List | Glossary Off
Versions: 1 2 3 4 5 6 7 8 9 10 11 12 13 14

000
FTUS43 KFGF 061900 AAA
TAFGFK
TAF AMD
KGFK 061958Z 0620/0718 14012G22KT 4SM -RA BR OVC012
     FM070000 15012KT P6SM SCT015 BKN025
      TEMPO 0701/0704 3SM -SHRA BKN015 OVC020
     FM071100 15009KT 3SM -RA BR OVC008=

USA.gov is the U.S. government's official web portal to all federal, state and local government web resources and services.